Tiempo atmosférico en la estación meteorológica de Capella, Huesca (600 m.)



Fecha
DESCASC
Temp. máxima en grados centígrados (hora)
DESCASC
Temp. mínima en grados centígrados (hora)
DESCASC
Temp. media en grados centígrados
DESCASC
Racha de viento máxima en m/sg (hora)
DESCASC
Velocidad máxima media en intervalos de 10 minutos(hora)
DESCASC
Precipitaciones diarias en mm
DESCASC
Precipitaciones de 00:00 a 06:00 en mm
DESCASC
Precipitaciones de 06:00 a 12:00 en mm
DESCASC
Precipitaciones de 12:00 a 18:00 en mm
DESCASC
Precipitaciones de 18:00 a 24:00 en mm
DESCASC
15-07-2018 32.4 (18:40) 15.7 (06:50) 24.1 7.5 (14:30) 5 (15:20) 0 0 0 0 0
14-07-2018 -- (--) -- (--) -- 6.67 (13:50) 3.33 (13:00) 0 0 0 0 0
13-07-2018 31.9 (17:30) 16.5 (06:50) 24.2 10.28 (19:30) 5.83 (19:40) 0 0 0 0 0
12-07-2018 29.6 (19:00) 14.6 (00:00) 22.1 7.78 (22:50) 4.17 (15:40) 0 0 0 0 0
11-07-2018 30.2 (18:10) 16.4 (00:00) 23.3 17.5 (20:50) 10.56 (20:50) 12 0 0 0 12
10-07-2018 30.7 (17:10) 15.6 (00:00) 23.2 7.22 (20:40) 4.17 (20:40) 0 0 0 0 0
09-07-2018 31.1 (16:40) 16.3 (00:00) 23.7 9.72 (16:50) 6.39 (17:20) 0 0 0 0 0
08-07-2018 31.3 (17:40) 16.6 (06:40) 23.9 10.28 (13:10) 4.72 (15:30) 0 0 0 0 0
07-07-2018 30.6 (17:20) 15.8 (00:00) 23.2 8.06 (15:30) 5 (15:40) 0 0 0 0 0
06-07-2018 28.4 (19:10) 12.9 (00:00) 20.6 9.17 (12:50) 4.44 (12:50) 0 0 0 0 0
05-07-2018 28.1 (17:50) 14.4 (05:30) 21.3 10 (19:00) 5.56 (18:40) 0 0 0 0 0
04-07-2018 31 (15:10) 16.4 (05:30) 23.7 9.44 (20:40) 5.56 (22:00) 4.6 0 0 0 4.6
03-07-2018 31.5 (18:20) 14.4 (06:50) 22.9 12.5 (20:50) 7.5 (21:00) 0.2 0 0 0 0.2
02-07-2018 29.7 (16:40) 18.3 (06:20) 24 8.33 (15:20) 4.72 (15:10) 0 0 0 0 0
01-07-2018 31 (16:30) 14.9 (00:00) 22.9 6.67 (14:20) 3.61 (14:20) 0 0 0 0 0
30-06-2018 30.7 (17:10) 16.6 (06:20) 23.7 10.56 (19:30) 5.28 (20:10) 0 0 0 0 0
29-06-2018 28.6 (15:50) 14.7 (00:00) 21.7 9.17 (22:20) 5.28 (22:20) 0 0 0 0 0
28-06-2018 29.6 (16:10) 17 (00:00) 23.3 11.39 (19:40) 6.39 (17:20) 24.8 0 0 0 24.8
27-06-2018 31.2 (16:40) 16.8 (00:00) 24 7.22 (18:20) 4.72 (18:10) 0 0 0 0 0
26-06-2018 30.5 (17:10) 17 (00:00) 23.8 8.89 (21:40) 4.17 (17:20) 0 0 0 0 0
25-06-2018 29.8 (17:10) 15.9 (00:00) 22.8 6.39 (13:40) 3.89 (14:10) 0 0 0 0 0
24-06-2018 29.1 (17:00) 15.3 (00:00) 22.2 5.83 (19:10) 3.89 (17:50) 0 0 0 0 0
23-06-2018 28.9 (18:20) 16.2 (00:00) 22.6 8.61 (21:50) 4.17 (21:50) 0 0 0 0 0
22-06-2018 31 (18:00) 15.7 (06:40) 23.3 8.33 (23:50) 4.72 (23:50) 0 0 0 0 0
21-06-2018 31.4 (17:30) 14.7 (00:00) 23 7.22 (15:10) 3.61 (13:50) 0 0 0 0 0
20-06-2018 30.9 (16:30) 14.5 (00:00) 22.7 8.61 (21:40) 4.72 (21:30) 0 0 0 0 0
19-06-2018 28 (18:10) 12.2 (00:00) 20.1 7.22 (13:30) 4.72 (13:20) 0 0 0 0 0
18-06-2018 28.3 (19:10) 11 (00:00) 19.6 8.33 (16:50) 5 (13:10) 0 0 0 0 0
17-06-2018 26.8 (19:30) 13.1 (00:00) 19.9 8.61 (14:10) 5.28 (14:00) 0 0 0 0 0

Gráficas

Temp. máximas Temp. mínimas Temp. medias Precipitaciones Rachas de viento máximas Velocidades máximas media en intervalos de 10 minutos

Datos horarios

Fecha y hora oficial Temperatura (ºC) Velocidad del viento (km/h) Dirección del viento Racha (km/h) Dirección de racha Precipitación (mm) Presión (hPa) Tendencia (hPa) Humedad (%)
2018-07-16 23:00:00 20.2 5 Este 12 Este 0 -- -- 53
2018-07-16 22:00:00 22.4 5 Nordeste 16 Nordeste 0 -- -- 48
2018-07-16 21:00:00 25 9 Nordeste 24 Norte 0 -- -- 38
2018-07-16 20:00:00 26.6 12 Norte 30 Norte 0 -- -- 33
2018-07-16 19:00:00 27.9 17 Norte 27 Nordeste 0 -- -- 32
2018-07-16 18:00:00 28.9 8 Norte 22 Oeste 0 -- -- 32
2018-07-16 17:00:00 26.7 6 Sur 24 Sudoeste 0 -- -- 43
2018-07-16 16:00:00 26.9 10 Sudoeste 27 Sudoeste 0 -- -- 42
2018-07-16 15:00:00 26.6 12 Sudoeste 26 Sudoeste 0 -- -- 42
2018-07-16 14:00:00 25.3 6 Sudoeste 19 Sudoeste 0 -- -- 44
2018-07-16 13:00:00 23.1 4 Sudeste 21 Nordeste 0 -- -- 46
2018-07-16 12:00:00 20.6 9 Nordeste 34 Nordeste 0 -- -- 60
2018-07-16 11:00:00 18 9 Este 23 Este 0 -- -- 82
2018-07-16 10:00:00 17.7 7 Sudeste 13 Sur 0 -- -- 88
2018-07-16 09:00:00 16.7 6 Sudeste 11 Sudeste 0 -- -- 91
2018-07-16 08:00:00 16 4 Sudeste 18 Este 0.6 -- -- 88
2018-07-16 07:00:00 16.3 8 Nordeste 18 Sudoeste 4.2 -- -- 81
2018-07-16 06:00:00 17.4 3 Noroeste 13 Este 0 -- -- 68
2018-07-16 05:00:00 17.1 5 Este 12 Nordeste 0 -- -- 67
2018-07-16 04:00:00 17.6 3 Este 8 Nordeste 0 -- -- 66
2018-07-16 03:00:00 19.6 6 Sudeste 13 Nordeste 0 -- -- 51
2018-07-16 02:00:00 20 6 Nordeste 14 Este 0 -- -- 52
2018-07-16 01:00:00 20.4 6 Este 10 Este 0 -- -- 49
2018-07-16 00:00:00 21.6 4 Nordeste 12 Sudeste 0 -- -- 44
2018-07-15 23:00:00 21.3 3 Sudeste 13 Sur 0 -- -- 48
2018-07-15 22:00:00 23.9 6 Este 11 Este 0 -- -- 42
2018-07-15 21:00:00 28.7 6 Sudeste 12 Este 0 -- -- 35
2018-07-15 20:00:00 31.4 6 Este 10 Este 0 -- -- 23
2018-07-15 19:00:00 32.1 3 Este 12 Sudoeste 0 -- -- 20
2018-07-15 18:00:00 30.9 6 Oeste 21 Oeste 0 -- -- 24
2018-07-15 17:00:00 31.6 14 Sudoeste 27 Sudoeste 0 -- -- 26
2018-07-15 16:00:00 31.5 13 Oeste 25 Sudoeste 0 -- -- 27
2018-07-15 15:00:00 31.2 17 Oeste 27 Oeste 0 -- -- 32
2018-07-15 14:00:00 30.6 13 Oeste 22 Sudoeste 0 -- -- 32
2018-07-15 13:00:00 30.1 5 Sur 15 Oeste 0 -- -- 35
2018-07-15 12:00:00 28.1 7 Oeste 17 Sudoeste 0 -- -- 43
2018-07-15 11:00:00 26.1 6 Oeste 10 Noroeste 0 -- -- 49
2018-07-15 10:00:00 23.5 3 Oeste 8 Norte 0 -- -- 53
2018-07-15 09:00:00 21.1 3 Este 7 Este 0 -- -- 61
2018-07-15 08:00:00 17.8 0 Calma 6 Sudeste 0 -- -- 76
2018-07-15 07:00:00 15.7 3 Sudeste 6 Este 0 -- -- 81
2018-07-15 06:00:00 16.4 4 Este 9 Este 0 -- -- 77
2018-07-15 05:00:00 16.9 3 Este 8 Este 0 -- -- 75
2018-07-15 04:00:00 18.4 5 Este 9 Sudeste 0 -- -- 68
2018-07-15 03:00:00 19.1 4 Nordeste 9 Sudeste 0 -- -- 67
2018-07-15 02:00:00 19.7 7 Este 11 Este 0 -- -- 65
2018-07-15 01:00:00 20.8 5 Este 13 Nordeste 0 -- -- 58
2018-07-15 00:00:00 21.2 4 Este 12 Nordeste 0 -- -- 59
2018-07-14 23:00:00 22.7 9 Nordeste 14 Nordeste 0 -- -- 53
2018-07-14 22:00:00 24.1 4 Norte 10 Sur 0 -- -- 53
2018-07-14 21:00:00 28.6 6 Sur 13 Sudoeste 0 -- -- 40
2018-07-14 20:00:00 30.7 9 Oeste 15 Oeste 0 -- -- 32
2018-07-14 19:00:00 31.6 10 Oeste 17 Oeste 0 -- -- 30
2018-07-14 18:00:00 31.6 7 Oeste 20 Sudoeste 0 -- -- 30
2018-07-14 17:00:00 31.4 11 Oeste 20 Oeste 0 -- -- 32
2018-07-14 16:00:00 31 8 Oeste 16 Sudoeste 0 -- -- 33
2018-07-14 15:00:00 29.8 6 Oeste 22 Oeste 0 -- -- 37
2018-07-14 14:00:00 29.4 10 Sudoeste 24 Sudoeste 0 -- -- 37
2018-07-14 13:00:00 28.6 12 Sur 21 Sur 0 -- -- 37
2018-07-14 12:00:00 28 6 Este 22 Sudoeste 0 -- -- 41
2018-07-14 11:00:00 26.5 5 Sudeste 12 Sudeste 0 -- -- 46
2018-07-14 10:00:00 23 4 Nordeste 13 Oeste 0 -- -- 61
2018-07-14 09:00:00 19.4 4 Oeste 6 Oeste 0 -- -- 76
2018-07-14 08:00:00 17.2 3 Este 6 Oeste 0 -- -- 87
2018-07-14 07:00:00 16.7 6 Sudeste 10 Este 0 -- -- 81
2018-07-14 06:00:00 16.2 3 Este 10 Nordeste 0 -- -- 84
2018-07-14 05:00:00 17.4 6 Este 11 Nordeste 0 -- -- 79
2018-07-14 04:00:00 17.7 2 Este 8 Sudeste 0 -- -- 82
2018-07-14 03:00:00 18.2 0 Calma 8 Nordeste 0 -- -- 81
2018-07-14 02:00:00 19.2 2 Norte 11 Este 0 -- -- 75
2018-07-14 01:00:00 19.4 4 Nordeste 8 Nordeste 0 -- -- 78
2018-07-14 00:00:00 20.4 4 Sur 8 Sudeste 0 -- -- 73
2018-07-13 23:00:00 22.2 3 Nordeste 9 Sudeste 0 -- -- 65
2018-07-13 22:00:00 24.6 6 Este 10 Nordeste 0 -- -- 56
2018-07-13 21:00:00 25.8 5 Noroeste 33 Sudeste 0 -- -- 52
2018-07-13 20:00:00 26.6 15 Sudeste 37 Sudeste 0 -- -- 50
2018-07-13 19:00:00 29.1 14 Sudeste 30 Sudeste 0 -- -- 40
2018-07-13 18:00:00 31.1 11 Sudeste 24 Sudeste 0 -- -- 36
2018-07-13 17:00:00 31.6 5 Este 14 Este 0 -- -- 35
2018-07-13 16:00:00 30.7 6 Este 13 Este 0 -- -- 36
2018-07-13 15:00:00 29.9 5 Este 18 Sur 0 -- -- 40
2018-07-13 14:00:00 29.6 8 Norte 19 Noroeste 0 -- -- 43
2018-07-13 13:00:00 28.3 5 Este 18 Nordeste 0 -- -- 42
2018-07-13 12:00:00 27.5 8 Este 18 Este 0 -- -- 46
2018-07-13 11:00:00 26.1 7 Este 15 Este 0 -- -- 50
2018-07-13 10:00:00 23.3 6 Noroeste 9 Noroeste 0 -- -- 69
2018-07-13 09:00:00 20.6 2 Oeste 5 Noroeste 0 -- -- 79
2018-07-13 08:00:00 17.9 3 Sudeste 6 Este 0 -- -- 90
2018-07-13 07:00:00 16.6 2 Este 4 Sudeste 0 -- -- 91
2018-07-13 06:00:00 17 2 Nordeste 8 Nordeste 0 -- -- 89
2018-07-13 05:00:00 17.7 3 Este 8 Nordeste 0 -- -- 87
2018-07-13 04:00:00 18.5 3 Nordeste 8 Sudeste 0 -- -- 84
2018-07-13 03:00:00 19.2 4 Sudeste 7 Nordeste 0 -- -- 83
2018-07-13 02:00:00 20 2 Nordeste 9 Norte 0 -- -- 79
2018-07-13 01:00:00 21.9 7 Nordeste 23 Este 0 -- -- 69
2018-07-13 00:00:00 22.5 4 Sudoeste 24 Nordeste 0 -- -- 68
2018-07-12 23:00:00 24 10 Sur 28 Sur 0 -- -- 61
2018-07-12 22:00:00 25.2 5 Sur 26 Sudeste 0 -- -- 55
2018-07-12 21:00:00 27 5 Sur 11 Oeste 0 -- -- 48
2018-07-12 20:00:00 28.9 6 Oeste 13 Oeste 0 -- -- 40
2018-07-12 19:00:00 29.6 4 Oeste 19 Oeste 0 -- -- 38
2018-07-12 18:00:00 28.9 5 Sudoeste 18 Sudoeste 0 -- -- 39
2018-07-12 17:00:00 28.7 9 Sudoeste 26 Sudoeste 0 -- -- 41
2018-07-12 16:00:00 28.2 12 Oeste 24 Sudoeste 0 -- -- 43
2018-07-12 15:00:00 27.4 10 Sudoeste 20 Noroeste 0 -- -- 43
2018-07-12 14:00:00 25.9 12 Oeste 21 Oeste 0 -- -- 54
2018-07-12 13:00:00 25.3 13 Oeste 23 Oeste 0 -- -- 58
2018-07-12 12:00:00 23.7 13 Oeste 20 Oeste 0 -- -- 59
2018-07-12 11:00:00 22.2 4 Nordeste 9 Norte 0 -- -- 63
2018-07-12 10:00:00 19.5 7 Oeste 10 Sudoeste 0 -- -- 78
2018-07-12 09:00:00 18.9 3 Noroeste 6 Nordeste 0 -- -- 77
2018-07-12 08:00:00 16.4 2 Norte 10 Este 0 -- -- 86
2018-07-12 07:00:00 14.6 3 Nordeste 6 Nordeste 0 -- -- 91
2018-07-12 06:00:00 15.4 4 Sur 8 Noroeste 0 -- -- 90
2018-07-12 05:00:00 17 2 Noroeste 12 Este 0 -- -- 83
2018-07-12 04:00:00 17 4 Nordeste 22 Este 0 -- -- 84
2018-07-12 03:00:00 17.1 6 Nordeste 13 Oeste 0 -- -- 92
2018-07-12 02:00:00 17.4 3 Nordeste 8 Nordeste 0 -- -- 90
2018-07-12 01:00:00 17.6 2 Nordeste 13 Este 0 -- -- 85
2018-07-12 00:00:00 17.8 5 Este 13 Norte 0 -- -- 83
2018-07-11 23:00:00 18.3 9 Este 26 Este 0 -- -- 78
2018-07-11 22:00:00 17.4 5 Este 36 Este 0.2 -- -- 83
2018-07-11 21:00:00 16.4 19 Sudeste 63 Sur 11.8 -- -- 88
2018-07-11 20:00:00 27.2 17 Sur 30 Sur 0 -- -- 34
2018-07-11 19:00:00 29.1 14 Sur 27 Sur 0 -- -- 42
2018-07-11 18:00:00 29.9 17 Sudoeste 29 Oeste 0 -- -- 42
2018-07-11 17:00:00 30 14 Sudoeste 32 Oeste 0 -- -- 42
2018-07-11 16:00:00 29.4 9 Sur 23 Sur 0 -- -- 44
2018-07-11 15:00:00 29 9 Sur 22 Sur 0 -- -- 42
2018-07-11 14:00:00 28.2 8 Sudoeste 17 Sudoeste 0 -- -- 49
2018-07-11 13:00:00 27.4 8 Sur 14 Sudeste 0 -- -- 48
2018-07-11 12:00:00 26.5 6 Nordeste 14 Sudoeste 0 -- -- 53
2018-07-11 11:00:00 26 7 Nordeste 19 Nordeste 0 -- -- 54
2018-07-11 10:00:00 23.8 12 Nordeste 19 Nordeste 0 -- -- 64
2018-07-11 09:00:00 19.7 0 Calma 5 Nordeste 0 -- -- 76
2018-07-11 08:00:00 17.5 3 Este 10 Nordeste 0 -- -- 83
2018-07-11 07:00:00 16.8 5 Este 9 Este 0 -- -- 83
2018-07-11 06:00:00 17.4 4 Este 7 Sudeste 0 -- -- 82
2018-07-11 05:00:00 17.7 2 Norte 11 Nordeste 0 -- -- 79
2018-07-11 04:00:00 18.6 8 Nordeste 11 Nordeste 0 -- -- 76
2018-07-11 03:00:00 20.1 2 Norte 18 Este 0 -- -- 71
2018-07-11 02:00:00 21.4 10 Nordeste 19 Nordeste 0 -- -- 66
2018-07-11 01:00:00 22.1 11 Este 19 Nordeste 0 -- -- 63
2018-07-11 00:00:00 22.9 9 Este 16 Nordeste 0 -- -- 61
2018-07-10 23:00:00 24.6 5 Nordeste 19 Sur 0 -- -- 55
2018-07-10 22:00:00 26.1 11 Sur 23 Sur 0 -- -- 48
2018-07-10 21:00:00 28.1 9 Sudoeste 26 Sudoeste 0 -- -- 41
2018-07-10 20:00:00 29.5 13 Sudoeste 24 Sudoeste 0 -- -- 39
2018-07-10 19:00:00 30 14 Sudoeste 23 Sudoeste 0 -- -- 39
2018-07-10 18:00:00 30.3 11 Sudoeste 25 Sudoeste 0 -- -- 39
2018-07-10 17:00:00 30.2 10 Oeste 24 Sudoeste 0 -- -- 35
2018-07-10 16:00:00 29.7 7 Sur 21 Sudoeste 0 -- -- 39
2018-07-10 15:00:00 29.4 12 Oeste 22 Oeste 0 -- -- 42
2018-07-10 14:00:00 28.5 12 Oeste 23 Noroeste 0 -- -- 45
2018-07-10 13:00:00 27.6 10 Sudoeste 19 Oeste 0 -- -- 43
2018-07-10 12:00:00 26.7 8 Noroeste 17 Oeste 0 -- -- 48
2018-07-10 11:00:00 25 8 Oeste 13 Oeste 0 -- -- 48
2018-07-10 10:00:00 23 3 Noroeste 7 Norte 0 -- -- 54
2018-07-10 09:00:00 20 2 Sudeste 6 Este 0 -- -- 65
2018-07-10 08:00:00 17.3 4 Este 6 Este 0 -- -- 73
2018-07-10 07:00:00 15.6 4 Este 8 Nordeste 0 -- -- 79
2018-07-10 06:00:00 16.5 4 Este 8 Este 0 -- -- 74
2018-07-10 05:00:00 17 6 Nordeste 11 Nordeste 0 -- -- 73
2018-07-10 04:00:00 17.5 5 Este 10 Nordeste 0 -- -- 71
2018-07-10 03:00:00 18.3 5 Nordeste 10 Este 0 -- -- 69
2018-07-10 02:00:00 19.1 6 Este 13 Nordeste 0 -- -- 67
2018-07-10 01:00:00 20.1 6 Nordeste 13 Nordeste 0 -- -- 66
2018-07-10 00:00:00 21.6 10 Nordeste 21 Este 0 -- -- 60
2018-07-09 23:00:00 21.7 7 Nordeste 16 Este 0 -- -- 60
2018-07-09 22:00:00 23.4 7 Nordeste 17 Este 0 -- -- 56
2018-07-09 21:00:00 25.9 6 Nordeste 14 Nordeste 0 -- -- 52
2018-07-09 20:00:00 25.8 7 Este 21 Norte 0 -- -- 51
2018-07-09 19:00:00 27 9 Nordeste 19 Nordeste 0 -- -- 46
2018-07-09 18:00:00 24.2 6 Este 35 Oeste 0 -- -- 57
2018-07-09 17:00:00 30.7 17 Sudoeste 35 Sudoeste 0 -- -- 33
2018-07-09 16:00:00 30.8 13 Sudoeste 31 Oeste 0 -- -- 37
2018-07-09 15:00:00 29.8 18 Sudoeste 28 Sudoeste 0 -- -- 39
2018-07-09 14:00:00 29.3 17 Sudoeste 29 Sudoeste 0 -- -- 41
2018-07-09 13:00:00 28.5 12 Oeste 22 Sudoeste 0 -- -- 43
2018-07-09 12:00:00 27 8 Oeste 12 Oeste 0 -- -- 49
2018-07-09 11:00:00 26.2 4 Noroeste 9 Noroeste 0 -- -- 47
2018-07-09 10:00:00 23.6 4 Noroeste 8 Norte 0 -- -- 56
2018-07-09 09:00:00 21.6 3 Oeste 9 Oeste 0 -- -- 62
2018-07-09 08:00:00 18.7 4 Nordeste 8 Norte 0 -- -- 74
2018-07-09 07:00:00 16.3 0 Calma 4 Sudeste 0 -- -- 81
2018-07-09 06:00:00 17.8 3 Este 8 Sudeste 0 -- -- 73
2018-07-09 05:00:00 18.3 3 Este 6 Sudeste 0 -- -- 73
2018-07-09 04:00:00 19.7 7 Sudeste 12 Este 0 -- -- 65
2018-07-09 03:00:00 20.2 9 Este 13 Este 0 -- -- 64
2018-07-09 02:00:00 20.7 4 Norte 10 Norte 0 -- -- 62
2018-07-09 01:00:00 21.5 5 Nordeste 15 Nordeste 0 -- -- 63
2018-07-09 00:00:00 21.9 5 Nordeste 10 Sudeste 0 -- -- 59
2018-07-08 23:00:00 23.7 5 Sudeste 11 Este 0 -- -- 57
2018-07-08 22:00:00 24.5 0 Calma 11 Sur 0 -- -- 53
2018-07-08 21:00:00 28.7 5 Sur 10 Oeste 0 -- -- 42
2018-07-08 20:00:00 30.3 8 Noroeste 21 Oeste 0 -- -- 34
2018-07-08 19:00:00 31.1 9 Sudoeste 20 Sudoeste 0 -- -- 32
2018-07-08 18:00:00 31 12 Sudoeste 25 Sudoeste 0 -- -- 31
2018-07-08 17:00:00 30.9 16 Sudoeste 29 Sudoeste 0 -- -- 34
2018-07-08 16:00:00 30.6 16 Sudoeste 28 Sudoeste 0 -- -- 37
2018-07-08 15:00:00 30 15 Oeste 27 Oeste 0 -- -- 41
2018-07-08 14:00:00 29.1 13 Oeste 37 Sudoeste 0 -- -- 44
2018-07-08 13:00:00 28.9 7 Sur 15 Sur 0 -- -- 39
2018-07-08 12:00:00 27.5 6 Noroeste 12 Noroeste 0 -- -- 46
2018-07-08 11:00:00 25.5 3 Oeste 10 Noroeste 0 -- -- 50
2018-07-08 10:00:00 23.3 4 Oeste 9 Oeste 0 -- -- 55
2018-07-08 09:00:00 20.5 6 Oeste 9 Oeste 0 -- -- 69
2018-07-08 08:00:00 18.3 5 Este 10 Este 0 -- -- 74
2018-07-08 07:00:00 16.6 4 Sudeste 10 Sudoeste 0 -- -- 81
2018-07-08 06:00:00 17 7 Sur 12 Sur 0 -- -- 80
2018-07-08 05:00:00 17.6 4 Sudoeste 10 Este 0 -- -- 78
2018-07-08 04:00:00 19.2 5 Sudeste 9 Este 0 -- -- 72
2018-07-08 03:00:00 19.8 2 Oeste 10 Oeste 0 -- -- 73
2018-07-08 02:00:00 20.6 6 Sur 9 Sur 0 -- -- 65
2018-07-08 01:00:00 21.4 5 Noroeste 12 Sudoeste 0 -- -- 63
2018-07-08 00:00:00 22.1 3 Este 14 Nordeste 0 -- -- 60
2018-07-07 23:00:00 23.9 9 Este 25 Este 0 -- -- 52
2018-07-07 22:00:00 25 9 Nordeste 18 Nordeste 0 -- -- 45
2018-07-07 21:00:00 28 3 Oeste 9 Sudoeste 0 -- -- 44
2018-07-07 20:00:00 28.9 5 Oeste 20 Sudoeste 0 -- -- 41
2018-07-07 19:00:00 30.2 15 Sudoeste 23 Sudoeste 0 -- -- 36
2018-07-07 18:00:00 30.3 15 Sudoeste 27 Sudoeste 0 -- -- 39
2018-07-07 17:00:00 30.3 10 Sudoeste 28 Oeste 0 -- -- 39
2018-07-07 16:00:00 29.1 16 Oeste 29 Sudoeste 0 -- -- 48
2018-07-07 15:00:00 29.6 6 Sur 18 Oeste 0 -- -- 42
2018-07-07 14:00:00 28.7 7 Sudoeste 18 Oeste 0 -- -- 46
2018-07-07 13:00:00 27.8 8 Noroeste 18 Sudoeste 0 -- -- 48
2018-07-07 12:00:00 26.8 9 Oeste 17 Oeste 0 -- -- 48
2018-07-07 11:00:00 24.8 7 Oeste 13 Sudoeste 0 -- -- 52
2018-07-07 10:00:00 22.5 5 Oeste 9 Noroeste 0 -- -- 58
2018-07-07 09:00:00 20 4 Oeste 7 Noroeste 0 -- -- 67
2018-07-07 08:00:00 17.4 2 Sur 8 Nordeste 0 -- -- 78
2018-07-07 07:00:00 15.8 3 Sudeste 8 Nordeste 0 -- -- 82
2018-07-07 06:00:00 16 3 Este 10 Nordeste 0 -- -- 80
2018-07-07 05:00:00 16.2 4 Nordeste 12 Nordeste 0 -- -- 76
2018-07-07 04:00:00 16.6 7 Nordeste 13 Nordeste 0 -- -- 74
2018-07-07 03:00:00 17.2 5 Nordeste 14 Este 0 -- -- 68
2018-07-07 02:00:00 17.5 8 Nordeste 12 Nordeste 0 -- -- 66
2018-07-07 01:00:00 17.8 4 Este 14 Nordeste 0 -- -- 65
2018-07-07 00:00:00 19.2 6 Este 11 Este 0 -- -- 60
2018-07-06 23:00:00 20.4 5 Nordeste 10 Nordeste 0 -- -- 56
2018-07-06 22:00:00 22.8 4 Nordeste 10 Sur 0 -- -- 49
2018-07-06 21:00:00 26.3 9 Sur 18 Sur 0 -- -- 35
2018-07-06 20:00:00 27.9 9 Sur 22 Sur 0 -- -- 33
2018-07-06 19:00:00 28.1 12 Sudoeste 29 Sur 0 -- -- 34
2018-07-06 18:00:00 28 12 Sudoeste 27 Sudoeste 0 -- -- 35
2018-07-06 17:00:00 27.4 13 Sudoeste 27 Sudoeste 0 -- -- 38
2018-07-06 16:00:00 27.1 11 Sudoeste 24 Sudoeste 0 -- -- 41
2018-07-06 15:00:00 25.9 13 Sudoeste 25 Oeste 0 -- -- 42
2018-07-06 14:00:00 25.6 11 Sudoeste 28 Sudoeste 0 -- -- 42
2018-07-06 13:00:00 24.6 15 Oeste 33 Sudoeste 0 -- -- 54
2018-07-06 12:00:00 23.1 11 Oeste 21 Oeste 0 -- -- 54
2018-07-06 11:00:00 21.2 5 Noroeste 13 Oeste 0 -- -- 60
2018-07-06 10:00:00 19.5 7 Oeste 14 Oeste 0 -- -- 64
2018-07-06 09:00:00 17.6 0 Calma 4 Nordeste 0 -- -- 72
2018-07-06 08:00:00 15.1 0 Calma 5 Nordeste 0 -- -- 82
2018-07-06 07:00:00 13.3 3 Este 6 Sudeste 0 -- -- 87
2018-07-06 06:00:00 12.9 0 Calma 6 Este 0 -- -- 90
2018-07-06 05:00:00 13.7 0 Calma 7 Nordeste 0 -- -- 86
2018-07-06 04:00:00 14.1 0 Calma 6 Sudeste 0 -- -- 87
2018-07-06 03:00:00 14.9 6 Nordeste 9 Nordeste 0 -- -- 82
2018-07-06 02:00:00 16.1 5 Sudeste 8 Sudeste 0 -- -- 76
2018-07-06 01:00:00 17 4 Este 10 Nordeste 0 -- -- 71
2018-07-06 00:00:00 18.6 4 Nordeste 10 Nordeste 0 -- -- 68
2018-07-05 23:00:00 20.3 6 Este 16 Sur 0 -- -- 62
2018-07-05 22:00:00 22.1 11 Sur 20 Sur 0 -- -- 49
2018-07-05 21:00:00 24.6 13 Sur 26 Sudoeste 0 -- -- 40
2018-07-05 20:00:00 25.6 14 Sudoeste 30 Sudoeste 0 -- -- 40
2018-07-05 19:00:00 26.9 20 Sudoeste 36 Sudoeste 0 -- -- 39
2018-07-05 18:00:00 27.6 18 Sudoeste 31 Sudoeste 0 -- -- 40
2018-07-05 17:00:00 27.6 9 Sudoeste 27 Sudoeste 0 -- -- 35
2018-07-05 16:00:00 26.7 11 Sudoeste 23 Sudoeste 0 -- -- 39
2018-07-05 15:00:00 25.8 9 Oeste 24 Oeste 0 -- -- 47
2018-07-05 14:00:00 24.9 14 Sudoeste 26 Sudoeste 0 -- -- 52
2018-07-05 13:00:00 24.2 13 Oeste 27 Oeste 0 -- -- 59
2018-07-05 12:00:00 22.9 12 Oeste 19 Oeste 0 -- -- 69
2018-07-05 11:00:00 21.6 6 Oeste 13 Sudoeste 0 -- -- 73
2018-07-05 10:00:00 19.3 9 Oeste 12 Oeste 0 -- -- 80
2018-07-05 09:00:00 17.4 3 Noroeste 6 Nordeste 0 -- -- 87
2018-07-05 08:00:00 15.6 0 Calma 4 Norte 0 -- -- 94
2018-07-05 07:00:00 14.4 3 Este 6 Sudeste 0 -- -- 94
2018-07-05 06:00:00 14.4 4 Sudeste 6 Sudeste 0 -- -- 96
2018-07-05 05:00:00 14.5 2 Este 8 Este 0 -- -- 96
2018-07-05 04:00:00 15.1 3 Sudeste 8 Sudeste 0 -- -- 95
2018-07-05 03:00:00 15.7 2 Este 7 Este 0 -- -- 95
2018-07-05 02:00:00 16.2 2 Oeste 5 Oeste 0 -- -- 95
2018-07-05 01:00:00 17.2 0 Calma 8 Sur 0 -- -- 93
2018-07-05 00:00:00 18.1 3 Este 11 Sudeste 0 -- -- 91
2018-07-04 23:00:00 19.4 4 Sudeste 26 Sudoeste 3.8 -- -- 84
2018-07-04 22:00:00 22.5 20 Sudoeste 32 Oeste 0.8 -- -- 72
2018-07-04 21:00:00 26 7 Noroeste 34 Sudeste 0 -- -- 41
2018-07-04 20:00:00 28.6 19 Sudeste 33 Sudeste 0 -- -- 34
2018-07-04 19:00:00 29.9 12 Sudeste 27 Sudeste 0 -- -- 32
2018-07-04 18:00:00 30.2 10 Este 27 Sudeste 0 -- -- 32
2018-07-04 17:00:00 30.7 8 Este 24 Este 0 -- -- 31
2018-07-04 16:00:00 30.8 15 Sudeste 31 Sudeste 0 -- -- 24
2018-07-04 15:00:00 30.9 9 Este 27 Sudeste 0 -- -- 24
2018-07-04 14:00:00 30.5 12 Sudeste 31 Sudeste 0 -- -- 21
2018-07-04 13:00:00 29.2 13 Sudeste 27 Sur 0 -- -- 22
2018-07-04 12:00:00 28 12 Este 28 Este 0 -- -- 34
2018-07-04 11:00:00 26.8 12 Este 23 Nordeste 0 -- -- 42
2018-07-04 10:00:00 25.1 7 Nordeste 13 Nordeste 0 -- -- 52
2018-07-04 09:00:00 20.7 6 Oeste 9 Oeste 0 -- -- 67
2018-07-04 08:00:00 18.4 3 Norte 6 Nordeste 0 -- -- 75
2018-07-04 07:00:00 16.4 4 Este 10 Nordeste 0 -- -- 79
2018-07-04 06:00:00 16.4 5 Este 14 Nordeste 0 -- -- 80
2018-07-04 05:00:00 16.7 4 Nordeste 12 Nordeste 0 -- -- 79
2018-07-04 04:00:00 17.6 8 Nordeste 12 Nordeste 0 -- -- 78
2018-07-04 03:00:00 18.8 7 Nordeste 16 Nordeste 0 -- -- 72
2018-07-04 02:00:00 19.7 5 Este 27 Sudoeste 0 -- -- 68
2018-07-04 01:00:00 20.2 12 Sudoeste 23 Oeste 0 -- -- 70
2018-07-04 00:00:00 20.3 5 Nordeste 14 Este 0 -- -- 73
2018-07-03 23:00:00 20.7 3 Nordeste 14 Este 0 -- -- 73
2018-07-03 22:00:00 20.9 3 Sur 26 Sudeste 0 -- -- 74
2018-07-03 21:00:00 24.6 27 Sudeste 45 Sur 0.2 -- -- 60
2018-07-03 20:00:00 30.9 5 Sudoeste 18 Oeste 0 -- -- 28
2018-07-03 19:00:00 31.1 9 Sudoeste 20 Oeste 0 -- -- 26
2018-07-03 18:00:00 30.9 6 Sur 23 Sur 0 -- -- 27
2018-07-03 17:00:00 29.7 3 Este 19 Sudoeste 0 -- -- 34
2018-07-03 16:00:00 29.4 9 Sur 14 Sur 0 -- -- 37
2018-07-03 15:00:00 28.9 5 Sur 23 Sur 0 -- -- 39
2018-07-03 14:00:00 28.5 4 Nordeste 10 Oeste 0 -- -- 39
2018-07-03 13:00:00 27.9 3 Sudeste 10 Oeste 0 -- -- 39
2018-07-03 12:00:00 27.5 3 Oeste 13 Oeste 0 -- -- 43
2018-07-03 11:00:00 25.5 4 Oeste 10 Noroeste 0 -- -- 46
2018-07-03 10:00:00 22.5 4 Oeste 7 Oeste 0 -- -- 51
2018-07-03 09:00:00 20.6 3 Norte 7 Nordeste 0 -- -- 61
2018-07-03 08:00:00 17.1 0 Calma 13 Nordeste 0 -- -- 70
2018-07-03 07:00:00 14.4 4 Nordeste 8 Este 0 -- -- 81
2018-07-03 06:00:00 14.6 2 Norte 6 Nordeste 0 -- -- 79
2018-07-03 05:00:00 16.1 4 Sudeste 8 Nordeste 0 -- -- 70
2018-07-03 04:00:00 16.3 0 Calma 9 Este 0 -- -- 73
2018-07-03 03:00:00 17.9 3 Este 9 Este 0 -- -- 63
2018-07-03 02:00:00 18.6 3 Nordeste 16 Nordeste 0 -- -- 66
2018-07-03 01:00:00 19.1 6 Este 12 Nordeste 0 -- -- 60
2018-07-03 00:00:00 19.1 2 Sudeste 11 Este 0 -- -- 65
2018-07-02 23:00:00 20.6 5 Este 10 Este 0 -- -- 55
2018-07-02 22:00:00 22.4 0 Calma 9 Sur 0 -- -- 53
2018-07-02 21:00:00 27 5 Sudoeste 12 Sudoeste 0 -- -- 37
2018-07-02 20:00:00 28.5 9 Sudoeste 21 Sudoeste 0 -- -- 32
2018-07-02 19:00:00 29.1 12 Sudoeste 24 Sudoeste 0 -- -- 30
2018-07-02 18:00:00 29.3 15 Sudoeste 27 Sudoeste 0 -- -- 31
2018-07-02 17:00:00 29.6 15 Oeste 27 Sudoeste 0 -- -- 30
2018-07-02 16:00:00 29.6 17 Sudoeste 30 Sudoeste 0 -- -- 28
2018-07-02 15:00:00 28.9 12 Sudoeste 26 Oeste 0 -- -- 34
2018-07-02 14:00:00 28.4 12 Sudoeste 24 Sudoeste 0 -- -- 35
2018-07-02 13:00:00 27.8 10 Oeste 28 Oeste 0 -- -- 40
2018-07-02 12:00:00 26.6 12 Oeste 23 Oeste 0 -- -- 52
2018-07-02 11:00:00 25.1 10 Sudoeste 17 Sudoeste 0 -- -- 62
2018-07-02 10:00:00 23 9 Oeste 14 Oeste 0 -- -- 72
2018-07-02 09:00:00 21.9 3 Norte 5 Norte 0 -- -- 77
2018-07-02 08:00:00 19.3 5 Nordeste 8 Nordeste 0 -- -- 90
2018-07-02 07:00:00 18.4 3 Este 5 Sudoeste 0 -- -- 92
2018-07-02 06:00:00 18.7 4 Sudeste 6 Nordeste 0 -- -- 91
2018-07-02 05:00:00 19.7 5 Nordeste 9 Nordeste 0 -- -- 87
2018-07-02 04:00:00 20.2 4 Sudeste 12 Sudoeste 0 -- -- 85
2018-07-02 03:00:00 20.3 5 Sudoeste 11 Sur 0 -- -- 83
2018-07-02 02:00:00 21.4 2 Noroeste 16 Nordeste 0 -- -- 79
2018-07-02 01:00:00 21.9 3 Nordeste 8 Este 0 -- -- 76
2018-07-02 00:00:00 22 4 Nordeste 8 Este 0 -- -- 74
2018-07-01 23:00:00 22.2 5 Noroeste 8 Noroeste 0 -- -- 71
2018-07-01 22:00:00 23.5 5 Oeste 18 Sur 0 -- -- 67
2018-07-01 21:00:00 24.7 6 Sur 16 Sur 0 -- -- 54
2018-07-01 20:00:00 25.8 8 Sur 12 Sur 0 -- -- 53
2018-07-01 19:00:00 29 8 Sudoeste 13 Sudoeste 0 -- -- 40
2018-07-01 18:00:00 28.4 11 Sur 17 Sur 0 -- -- 43
2018-07-01 17:00:00 30.7 4 Norte 14 Norte 0 -- -- 40
2018-07-01 16:00:00 30.5 6 Noroeste 16 Noroeste 0 -- -- 38
2018-07-01 15:00:00 29.9 9 Oeste 24 Oeste 0 -- -- 39
2018-07-01 14:00:00 29.5 4 Sur 17 Oeste 0 -- -- 40
2018-07-01 13:00:00 28.2 8 Oeste 17 Noroeste 0 -- -- 38
2018-07-01 12:00:00 26.9 6 Noroeste 13 Oeste 0 -- -- 42
2018-07-01 11:00:00 25 4 Oeste 8 Sudoeste 0 -- -- 45
2018-07-01 10:00:00 22.6 4 Noroeste 9 Noroeste 0 -- -- 54
2018-07-01 09:00:00 19.9 2 Sudeste 5 Este 0 -- -- 64
2018-07-01 08:00:00 17.4 3 Norte 8 Este 0 -- -- 69
2018-07-01 07:00:00 15.7 4 Nordeste 12 Nordeste 0 -- -- 69
2018-07-01 06:00:00 15.2 5 Este 10 Este 0 -- -- 73
2018-07-01 05:00:00 14.9 6 Nordeste 10 Nordeste 0 -- -- 76
2018-07-01 04:00:00 15.6 5 Nordeste 9 Este -- -- -- 76
2018-07-01 03:00:00 16.4 2 Norte 9 Este 0 -- -- 76
2018-07-01 02:00:00 17.3 4 Sudeste 10 Este 0 -- -- 71
2018-07-01 01:00:00 18.1 6 Este 11 Nordeste 0 -- -- 68
2018-07-01 00:00:00 19.4 5 Nordeste 9 Nordeste 0 -- -- 61
2018-06-30 23:00:00 21.4 5 Este 14 Este 0 -- -- 54
2018-06-30 22:00:00 23.9 2 Norte 24 Sur 0 -- -- 48
2018-06-30 21:00:00 26.1 13 Sudeste 31 Sudeste 0 -- -- 38
2018-06-30 20:00:00 27.6 18 Sudeste 38 Sur 0 -- -- 40
2018-06-30 19:00:00 29.4 13 Sudeste 33 Sudeste 0 -- -- 40
2018-06-30 18:00:00 30.3 11 Este 30 Nordeste 0 -- -- 41
2018-06-30 17:00:00 30.5 13 Nordeste 27 Este 0 -- -- 44
2018-06-30 16:00:00 30.1 10 Nordeste 24 Este 0 -- -- 43
2018-06-30 15:00:00 29.7 13 Nordeste 24 Este 0 -- -- 44
2018-06-30 14:00:00 29 10 Nordeste 22 Norte 0 -- -- 46
2018-06-30 13:00:00 28.3 8 Nordeste 22 Nordeste 0 -- -- 48
2018-06-30 12:00:00 27.4 10 Nordeste 18 Nordeste 0 -- -- 45
2018-06-30 11:00:00 25.8 8 Este 21 Sudeste 0 -- -- 53
2018-06-30 10:00:00 24.2 10 Este 20 Este 0 -- -- 64
2018-06-30 09:00:00 22.2 8 Nordeste 16 Este 0 -- -- 74
2018-06-30 08:00:00 18.8 6 Nordeste 9 Nordeste 0 -- -- 89
2018-06-30 07:00:00 16.9 5 Nordeste 9 Este 0 -- -- 92
2018-06-30 06:00:00 16.8 6 Este 10 Nordeste 0 -- -- 90
2018-06-30 05:00:00 17.5 5 Nordeste 10 Nordeste 0 -- -- 88
2018-06-30 04:00:00 17.9 2 Este 5 Este 0 -- -- 89
2018-06-30 03:00:00 18.4 2 Nordeste 5 Sudeste 0 -- -- 87
2018-06-30 02:00:00 19.9 2 Sudoeste 4 Sur 0 -- -- 84
2018-06-30 01:00:00 20.7 0 Calma 8 Este 0 -- -- 77
2018-06-30 00:00:00 21.7 4 Nordeste 9 Nordeste 0 -- -- 70
2018-06-29 23:00:00 22.9 3 Nordeste 33 Sudeste 0 -- -- 63
2018-06-29 22:00:00 23.5 6 Sudeste 22 Sudeste 0 -- -- 59
2018-06-29 21:00:00 24.7 11 Sudeste 28 Sudeste 0 -- -- 57
2018-06-29 20:00:00 26.3 12 Sudeste 22 Sudeste 0 -- -- 55
2018-06-29 19:00:00 27.8 10 Sudeste 16 Sudeste 0 -- -- 48
2018-06-29 18:00:00 27.3 9 Sudeste 19 Sudeste 0 -- -- 50
2018-06-29 17:00:00 27.9 8 Sudeste 19 Sudeste 0 -- -- 43
2018-06-29 16:00:00 28.6 7 Sudeste 17 Este 0 -- -- 44
2018-06-29 15:00:00 27.7 7 Sur 15 Sur 0 -- -- 50
2018-06-29 14:00:00 27 6 Noroeste 13 Sudeste 0 -- -- 47
2018-06-29 13:00:00 25.8 5 Sudeste 17 Norte 0 -- -- 52
2018-06-29 12:00:00 24.7 3 Sudoeste 13 Nordeste 0 -- -- 52
2018-06-29 11:00:00 22.3 5 Noroeste 10 Nordeste 0 -- -- 69
2018-06-29 10:00:00 20.5 4 Oeste 16 Oeste 0 -- -- 80
2018-06-29 09:00:00 18.8 5 Norte 12 Nordeste 0 -- -- 88
2018-06-29 08:00:00 16.6 6 Nordeste 13 Este 0 -- -- 97
2018-06-29 07:00:00 14.8 3 Nordeste 6 Norte 0 -- -- 97
2018-06-29 06:00:00 15 4 Sur 7 Este 0 -- -- 96
2018-06-29 05:00:00 15.6 4 Este 5 Nordeste 0 -- -- 97
2018-06-29 04:00:00 15.8 2 Sur 10 Este 0 -- -- 95
2018-06-29 03:00:00 15.9 6 Nordeste 10 Nordeste 0 -- -- 96
2018-06-29 02:00:00 16.3 5 Nordeste 9 Este 0 -- -- 95
2018-06-29 01:00:00 16.7 0 Calma 8 Sudeste 0 -- -- 94
2018-06-29 00:00:00 17 4 Este 19 Nordeste 0 -- -- 92
2018-06-28 23:00:00 17.3 15 Nordeste 28 Nordeste 0 -- -- 91
2018-06-28 22:00:00 17.5 15 Nordeste 36 Este 0 -- -- 91
2018-06-28 21:00:00 17.4 8 Sudeste 20 Sudeste 2.8 -- -- 94
2018-06-28 20:00:00 17.6 9 Nordeste 41 Sudeste 22 -- -- 88
2018-06-28 19:00:00 22.4 8 Nordeste 24 Nordeste 0 -- -- 61
2018-06-28 18:00:00 23 11 Este 39 Nordeste 0 -- -- 60
2018-06-28 17:00:00 29.5 11 Sudoeste 27 Sudoeste 0 -- -- 45
2018-06-28 16:00:00 29.1 12 Sudoeste 30 Sudoeste 0 -- -- 48
2018-06-28 15:00:00 28.8 15 Sudoeste 27 Sudoeste 0 -- -- 47
2018-06-28 14:00:00 28.4 10 Sudoeste 22 Sudoeste 0 -- -- 51
2018-06-28 13:00:00 27.4 12 Oeste 22 Oeste 0 -- -- 57
2018-06-28 12:00:00 26.9 10 Oeste 21 Oeste 0 -- -- 61
2018-06-28 11:00:00 25.6 9 Oeste 16 Oeste 0 -- -- 65
2018-06-28 10:00:00 24.3 3 Sur 8 Oeste 0 -- -- 64
2018-06-28 09:00:00 22.2 3 Oeste 9 Norte 0 -- -- 74
2018-06-28 08:00:00 19.9 6 Nordeste 11 Nordeste 0 -- -- 80
2018-06-28 07:00:00 18.3 4 Este 6 Este 0 -- -- 88
2018-06-28 06:00:00 18.3 5 Este 9 Nordeste 0 -- -- 88
2018-06-28 05:00:00 18.3 2 Nordeste 7 Sudoeste 0 -- -- 85
2018-06-28 04:00:00 19.4 0 Calma 8 Oeste 0 -- -- 82
2018-06-28 03:00:00 20.4 2 Sudoeste 10 Sur 0 -- -- 77
2018-06-28 02:00:00 21.4 4 Nordeste 15 Nordeste 0 -- -- 74
2018-06-28 01:00:00 22 4 Este 8 Este 0 -- -- 72
2018-06-28 00:00:00 22.3 4 Este 8 Sudeste 0 -- -- 71
2018-06-27 23:00:00 23 4 Oeste 14 Sur 0 -- -- 66
2018-06-27 22:00:00 23.9 12 Sudoeste 17 Sudoeste 0 -- -- 62
2018-06-27 21:00:00 25.1 6 Sudoeste 16 Sudoeste 0 -- -- 52
2018-06-27 20:00:00 26.7 8 Oeste 22 Sudoeste 0 -- -- 50
2018-06-27 19:00:00 28.5 13 Sudoeste 26 Sudoeste 0 -- -- 47
2018-06-27 18:00:00 30.2 15 Sudoeste 25 Sudoeste 0 -- -- 42
2018-06-27 17:00:00 31.2 10 Sudoeste 23 Sudoeste 0 -- -- 42
2018-06-27 16:00:00 30.6 11 Sudoeste 23 Oeste 0 -- -- 43
2018-06-27 15:00:00 30 10 Oeste 22 Oeste 0 -- -- 46
2018-06-27 14:00:00 29.4 5 Oeste 18 Sudoeste 0 -- -- 46
2018-06-27 13:00:00 28.4 10 Noroeste 19 Oeste 0 -- -- 49
2018-06-27 12:00:00 26.9 6 Oeste 18 Oeste 0 -- -- 57
2018-06-27 11:00:00 25.6 8 Oeste 14 Oeste 0 -- -- 60
2018-06-27 10:00:00 24 4 Oeste 13 Norte 0 -- -- 64
2018-06-27 09:00:00 21.4 2 Norte 6 Oeste 0 -- -- 74
2018-06-27 08:00:00 18.9 3 Este 12 Nordeste 0 -- -- 82
2018-06-27 07:00:00 16.9 4 Este 8 Nordeste 0 -- -- 88
2018-06-27 06:00:00 17 4 Sudeste 10 Nordeste 0 -- -- 86
2018-06-27 05:00:00 17.8 6 Nordeste 9 Nordeste 0 -- -- 84
2018-06-27 04:00:00 18.4 2 Sudeste 7 Nordeste 0 -- -- 81
2018-06-27 03:00:00 18.9 6 Este 9 Nordeste 0 -- -- 80
2018-06-27 02:00:00 19.9 6 Nordeste 11 Nordeste 0 -- -- 75
2018-06-27 01:00:00 21.7 5 Nordeste 20 Este 0 -- -- 67
2018-06-27 00:00:00 22.8 6 Este 15 Este 0 -- -- 63
2018-06-26 23:00:00 24.3 8 Sudoeste 20 Sur 0 -- -- 61
2018-06-26 22:00:00 25.8 14 Sudeste 32 Sur 0 -- -- 57
2018-06-26 21:00:00 27.8 7 Sur 19 Sur 0 -- -- 47
2018-06-26 20:00:00 29.5 9 Sur 15 Oeste 0 -- -- 45
2018-06-26 19:00:00 29.9 10 Oeste 25 Oeste 0 -- -- 49
2018-06-26 18:00:00 30.2 12 Oeste 26 Oeste 0 -- -- 46
2018-06-26 17:00:00 30.4 10 Oeste 23 Sudoeste 0 -- -- 43
2018-06-26 16:00:00 30.2 6 Sudoeste 19 Sur 0 -- -- 40
2018-06-26 15:00:00 29.5 5 Sur 18 Sur 0 -- -- 39
2018-06-26 14:00:00 29 7 Sudoeste 16 Nordeste 0 -- -- 42
2018-06-26 13:00:00 28.2 5 Nordeste 15 Norte 0 -- -- 41
2018-06-26 12:00:00 27.3 7 Norte 21 Nordeste 0 -- -- 46
2018-06-26 11:00:00 25.9 8 Nordeste 19 Nordeste 0 -- -- 46
2018-06-26 10:00:00 24.1 7 Este 14 Norte 0 -- -- 55
2018-06-26 09:00:00 20.4 4 Nordeste 8 Nordeste 0 -- -- 78
2018-06-26 08:00:00 18.2 4 Nordeste 8 Nordeste 0 -- -- 85
2018-06-26 07:00:00 17.2 4 Este 6 Este 0 -- -- 86
2018-06-26 06:00:00 17.2 4 Este 9 Este 0 -- -- 84
2018-06-26 05:00:00 17.5 4 Este 8 Nordeste 0 -- -- 83
2018-06-26 04:00:00 18 4 Este 10 Nordeste 0 -- -- 83
2018-06-26 03:00:00 19 2 Nordeste 12 Este 0 -- -- 78
2018-06-26 02:00:00 21.1 8 Este 15 Sudeste 0 -- -- 67
2018-06-26 01:00:00 21.3 7 Nordeste 20 Nordeste 0 -- -- 72
2018-06-26 00:00:00 22.4 4 Sudeste 15 Sudeste 0 -- -- 70
2018-06-25 23:00:00 22.2 7 Noroeste 13 Noroeste 0 -- -- 72
2018-06-25 22:00:00 23.8 2 Nordeste 6 Nordeste 0 -- -- 69
2018-06-25 21:00:00 26.7 4 Nordeste 6 Sur 0 -- -- 59
2018-06-25 20:00:00 27.2 3 Sudoeste 19 Sudoeste 0 -- -- 54
2018-06-25 19:00:00 29.2 12 Sudoeste 20 Sudoeste 0 -- -- 48
2018-06-25 18:00:00 29.6 8 Sudoeste 19 Sur 0 -- -- 45
2018-06-25 17:00:00 29.5 11 Sudoeste 22 Oeste 0 -- -- 45
2018-06-25 16:00:00 28.8 8 Oeste 21 Oeste 0 -- -- 46
2018-06-25 15:00:00 27.9 6 Oeste 22 Sudoeste 0 -- -- 48
2018-06-25 14:00:00 26.7 13 Oeste 23 Oeste 0 -- -- 56
2018-06-25 13:00:00 25.8 11 Sudoeste 22 Sudoeste 0 -- -- 61
2018-06-25 12:00:00 24.8 7 Oeste 10 Oeste 0 -- -- 62
2018-06-25 11:00:00 23.6 5 Sudoeste 16 Oeste 0 -- -- 64
2018-06-25 10:00:00 22.4 6 Sudoeste 12 Sudoeste 0 -- -- 70
2018-06-25 09:00:00 20.2 5 Oeste 8 Oeste 0 -- -- 80
2018-06-25 08:00:00 18.1 5 Nordeste 13 Nordeste 0 -- -- 83
2018-06-25 07:00:00 16 6 Nordeste 13 Nordeste 0 -- -- 92
2018-06-25 06:00:00 16.3 6 Este 9 Este 0 -- -- 90
2018-06-25 05:00:00 16.9 5 Nordeste 9 Nordeste 0 -- -- 89
2018-06-25 04:00:00 17.4 8 Nordeste 11 Este 0 -- -- 87
2018-06-25 03:00:00 17.9 6 Nordeste 9 Nordeste 0 -- -- 86
2018-06-25 02:00:00 18 4 Este 6 Este 0 -- -- 86
2018-06-25 01:00:00 19 2 Sur 8 Noroeste 0 -- -- 83
2018-06-25 00:00:00 20.8 3 Nordeste 9 Nordeste 0 -- -- 76
2018-06-24 23:00:00 21.9 3 Nordeste 6 Nordeste 0 -- -- 72
2018-06-24 22:00:00 23.6 0 Calma 8 Sur 0 -- -- 66
2018-06-24 21:00:00 26 5 Sur 15 Oeste 0 -- -- 56
2018-06-24 20:00:00 27.7 8 Oeste 21 Oeste 0 -- -- 53
2018-06-24 19:00:00 28.2 13 Sudoeste 21 Sudoeste 0 -- -- 51
2018-06-24 18:00:00 28.6 11 Sudoeste 21 Sudoeste 0 -- -- 48
2018-06-24 17:00:00 29.1 5 Oeste 15 Sudoeste 0 -- -- 46
2018-06-24 16:00:00 28 9 Oeste 18 Oeste 0 -- -- 49
2018-06-24 15:00:00 27.3 7 Sur 16 Sudoeste 0 -- -- 47
2018-06-24 14:00:00 26.1 10 Oeste 20 Oeste 0 -- -- 53
2018-06-24 13:00:00 25.2 9 Oeste 18 Oeste 0 -- -- 57
2018-06-24 12:00:00 24.6 7 Sudoeste 11 Oeste 0 -- -- 56
2018-06-24 11:00:00 22.8 5 Oeste 11 Oeste 0 -- -- 61
2018-06-24 10:00:00 21 5 Oeste 10 Oeste 0 -- -- 73
2018-06-24 09:00:00 18.7 2 Oeste 6 Nordeste 0 -- -- 83
2018-06-24 08:00:00 17.3 3 Nordeste 7 Este 0 -- -- 87
2018-06-24 07:00:00 15.3 3 Nordeste 8 Nordeste 0 -- -- 91
2018-06-24 06:00:00 15.7 3 Sudeste 5 Este 0 -- -- 90
2018-06-24 05:00:00 16.1 2 Este 6 Nordeste 0 -- -- 87
2018-06-24 04:00:00 17.1 5 Nordeste 9 Nordeste 0 -- -- 86
2018-06-24 03:00:00 17.8 6 Nordeste 14 Nordeste 0 -- -- 83
2018-06-24 02:00:00 19.4 5 Este 10 Este 0 -- -- 78
2018-06-24 01:00:00 20.3 6 Este 9 Nordeste 0 -- -- 74
2018-06-24 00:00:00 21.9 6 Este 27 Este 0 -- -- 68
2018-06-23 23:00:00 22.5 5 Sur 17 Sudeste 0 -- -- 64
2018-06-23 22:00:00 24.7 12 Sudeste 31 Sudeste 0 -- -- 58
2018-06-23 21:00:00 26.7 10 Sudeste 22 Sur 0 -- -- 40
2018-06-23 20:00:00 27.7 11 Sudoeste 21 Sur 0 -- -- 47
2018-06-23 19:00:00 28.2 13 Sudoeste 20 Sudoeste 0 -- -- 50
2018-06-23 18:00:00 28.7 10 Sudoeste 24 Sudoeste 0 -- -- 47
2018-06-23 17:00:00 28.3 13 Oeste 23 Oeste 0 -- -- 50
2018-06-23 16:00:00 28.1 13 Sudoeste 26 Oeste 0 -- -- 53
2018-06-23 15:00:00 27.5 7 Sudoeste 21 Sudoeste 0 -- -- 54
2018-06-23 14:00:00 25.9 8 Sur 17 Oeste 0 -- -- 54
2018-06-23 13:00:00 25.6 12 Sur 22 Sudoeste 0 -- -- 54
2018-06-23 12:00:00 24.7 5 Sur 15 Oeste 0 -- -- 64
2018-06-23 11:00:00 23.6 7 Noroeste 13 Oeste 0 -- -- 65
2018-06-23 10:00:00 21.9 5 Oeste 12 Oeste 0 -- -- 69
2018-06-23 09:00:00 20 3 Oeste 6 Noroeste 0 -- -- 73
2018-06-23 08:00:00 18 2 Nordeste 8 Nordeste 0 -- -- 79
2018-06-23 07:00:00 16.2 4 Sudeste 8 Este 0 -- -- 84
2018-06-23 06:00:00 16.6 3 Este 6 Este 0 -- -- 84
2018-06-23 05:00:00 17.4 5 Este 10 Nordeste 0 -- -- 83
2018-06-23 04:00:00 18.2 4 Este 9 Este 0 -- -- 81
2018-06-23 03:00:00 18.8 0 Calma 7 Nordeste 0 -- -- 78
2018-06-23 02:00:00 20.4 3 Nordeste 20 Este 0 -- -- 74
2018-06-23 01:00:00 21.6 10 Este 22 Nordeste 0 -- -- 69
2018-06-23 00:00:00 22.5 15 Nordeste 30 Nordeste 0 -- -- 66
2018-06-22 23:00:00 24.3 10 Este 24 Este 0 -- -- 58
2018-06-22 22:00:00 26.2 4 Nordeste 8 Sur 0 -- -- 56
2018-06-22 21:00:00 28.3 8 Sur 21 Sudoeste 0 -- -- 43
2018-06-22 20:00:00 29 11 Sur 26 Sur 0 -- -- 41
2018-06-22 19:00:00 30.4 14 Sudoeste 27 Sudoeste 0 -- -- 41
2018-06-22 18:00:00 31 11 Sudoeste 25 Sur 0 -- -- 40
2018-06-22 17:00:00 30.6 14 Sur 26 Sudoeste 0 -- -- 39
2018-06-22 16:00:00 30.3 12 Sur 25 Sudoeste 0 -- -- 42
2018-06-22 15:00:00 29.5 13 Sudoeste 24 Sudoeste 0 -- -- 43
2018-06-22 14:00:00 28.8 13 Oeste 22 Oeste 0 -- -- 44
2018-06-22 13:00:00 28 11 Oeste 22 Oeste 0 -- -- 45
2018-06-22 12:00:00 27 13 Oeste 21 Oeste 0 -- -- 48
2018-06-22 11:00:00 25.8 9 Oeste 14 Oeste 0 -- -- 49
2018-06-22 10:00:00 23.8 6 Oeste 10 Sudoeste 0 -- -- 58
2018-06-22 09:00:00 21.8 3 Noroeste 8 Noroeste 0 -- -- 66
2018-06-22 08:00:00 18.5 3 Nordeste 10 Este 0 -- -- 76
2018-06-22 07:00:00 16 4 Nordeste 7 Nordeste 0 -- -- 82
2018-06-22 06:00:00 17 3 Sudeste 10 Este 0 -- -- 79
2018-06-22 05:00:00 18.2 0 Calma 9 Sudeste 0 -- -- 74
2018-06-22 04:00:00 19.1 8 Nordeste 11 Nordeste 0 -- -- 70
2018-06-22 03:00:00 20.2 5 Nordeste 9 Este 0 -- -- 66
2018-06-22 02:00:00 20.7 0 Calma 10 Este 0 -- -- 67
2018-06-22 01:00:00 22.7 8 Nordeste 19 Este 0 -- -- 56
2018-06-22 00:00:00 23.9 8 Nordeste 16 Nordeste 0 -- -- 50
2018-06-21 23:00:00 23.9 4 Este 8 Este 0 -- -- 58
2018-06-21 22:00:00 25.4 0 Calma 9 Sur 0 -- -- 51
2018-06-21 21:00:00 27.8 3 Sur 17 Sur 0 -- -- 46
2018-06-21 20:00:00 29.6 9 Sudoeste 18 Sur 0 -- -- 40
2018-06-21 19:00:00 30.9 11 Sudoeste 23 Sudoeste 0 -- -- 34
2018-06-21 18:00:00 31.3 9 Sudoeste 21 Sudoeste 0 -- -- 33
2018-06-21 17:00:00 31 11 Sudoeste 23 Sudoeste 0 -- -- 34
2018-06-21 16:00:00 30.4 10 Sur 26 Sudoeste 0 -- -- 36
2018-06-21 15:00:00 30 13 Oeste 22 Oeste 0 -- -- 38
2018-06-21 14:00:00 29.3 11 Sudoeste 23 Sudoeste 0 -- -- 40
2018-06-21 13:00:00 28.5 11 Sudoeste 22 Sudoeste 0 -- -- 41
2018-06-21 12:00:00 27.7 7 Sudoeste 14 Oeste 0 -- -- 38
2018-06-21 11:00:00 25.7 5 Oeste 9 Sudoeste 0 -- -- 51
2018-06-21 10:00:00 23 2 Oeste 5 Oeste 0 -- -- 60
2018-06-21 09:00:00 20.3 0 Calma 4 Oeste 0 -- -- 66
2018-06-21 08:00:00 17.2 0 Calma 7 Sudeste 0 -- -- 75
2018-06-21 07:00:00 15.1 4 Norte 6 Norte 0 -- -- 80
2018-06-21 06:00:00 15.1 0 Calma 10 Este 0 -- -- 80
2018-06-21 05:00:00 15.6 3 Este 6 Nordeste 0 -- -- 79
2018-06-21 04:00:00 17.3 4 Nordeste 9 Nordeste 0 -- -- 70
2018-06-21 03:00:00 17.6 3 Sudeste 10 Este 0 -- -- 72
2018-06-21 02:00:00 18.8 4 Este 7 Nordeste 0 -- -- 63
2018-06-21 01:00:00 20.3 3 Este 8 Sudeste 0 -- -- 59
2018-06-21 00:00:00 21.3 3 Nordeste 13 Este 0 -- -- 54
2018-06-20 23:00:00 22.3 9 Nordeste 17 Nordeste 0 -- -- 50
2018-06-20 22:00:00 25.3 6 Sudeste 31 Sudeste 0 -- -- 40
2018-06-20 21:00:00 26.9 13 Sur 24 Sur 0 -- -- 40
2018-06-20 20:00:00 28.9 9 Sudoeste 19 Oeste 0 -- -- 41
2018-06-20 19:00:00 29.9 10 Oeste 22 Oeste 0 -- -- 38
2018-06-20 18:00:00 30.6 12 Oeste 31 Sur 0 -- -- 39
2018-06-20 17:00:00 30.8 6 Sudoeste 21 Sudeste 0 -- -- 38
2018-06-20 16:00:00 30.3 6 Sur 20 Sudoeste 0 -- -- 35
2018-06-20 15:00:00 29.4 9 Oeste 20 Sur 0 -- -- 38
2018-06-20 14:00:00 28.6 5 Norte 14 Noroeste 0 -- -- 46
2018-06-20 13:00:00 27.5 6 Noroeste 13 Noroeste 0 -- -- 52
2018-06-20 12:00:00 26.3 5 Oeste 13 Oeste 0 -- -- 55
2018-06-20 11:00:00 24.9 8 Oeste 16 Oeste 0 -- -- 56
2018-06-20 10:00:00 23 3 Oeste 6 Oeste 0 -- -- 63
2018-06-20 09:00:00 20.7 2 Nordeste 6 Nordeste 0 -- -- 66
2018-06-20 08:00:00 17.4 4 Nordeste 8 Nordeste 0 -- -- 79
2018-06-20 07:00:00 14.5 0 Calma 8 Este 0 -- -- 88
2018-06-20 06:00:00 15 5 Este 9 Nordeste 0 -- -- 85
2018-06-20 05:00:00 15.7 3 Este 9 Este 0 -- -- 83
2018-06-20 04:00:00 16.6 5 Este 9 Este 0 -- -- 79
2018-06-20 03:00:00 17.3 3 Nordeste 10 Este 0 -- -- 77
2018-06-20 02:00:00 17.6 4 Sudeste 10 Sur 0 -- -- 76
2018-06-20 01:00:00 18.4 4 Sudeste 12 Nordeste 0 -- -- 74
2018-06-20 00:00:00 19.1 8 Nordeste 13 Nordeste 0 -- -- 71
2018-06-19 23:00:00 19.8 4 Este 11 Nordeste 0 -- -- 68
2018-06-19 22:00:00 20.9 2 Oeste 9 Sur 0 -- -- 67
2018-06-19 21:00:00 23.7 7 Sur 9 Sur 0 -- -- 58
2018-06-19 20:00:00 27.5 5 Oeste 15 Oeste 0 -- -- 47
2018-06-19 19:00:00 27.9 9 Sudoeste 18 Oeste 0 -- -- 42
2018-06-19 18:00:00 27.8 10 Sudoeste 21 Sudoeste 0 -- -- 42
2018-06-19 17:00:00 27.5 13 Oeste 25 Oeste 0 -- -- 42
2018-06-19 16:00:00 26.7 14 Oeste 26 Oeste 0 -- -- 46
2018-06-19 15:00:00 26.1 15 Oeste 24 Oeste 0 -- -- 46
2018-06-19 14:00:00 25.1 15 Oeste 26 Oeste 0 -- -- 54
2018-06-19 13:00:00 23.9 12 Oeste 22 Oeste 0 -- -- 59
2018-06-19 12:00:00 23 11 Oeste 18 Sudoeste 0 -- -- 63
2018-06-19 11:00:00 21.4 5 Noroeste 10 Oeste 0 -- -- 59
2018-06-19 10:00:00 19.2 6 Oeste 12 Oeste 0 -- -- 65
2018-06-19 09:00:00 16.8 6 Sudoeste 10 Sudoeste 0 -- -- 74
2018-06-19 08:00:00 14.5 3 Nordeste 8 Nordeste 0 -- -- 82
2018-06-19 07:00:00 12.2 2 Este 6 Este 0 -- -- 89
2018-06-19 06:00:00 13.2 0 Calma 9 Este 0 -- -- 82
2018-06-19 05:00:00 14.1 3 Este 9 Este 0 -- -- 78
2018-06-19 04:00:00 15.1 3 Este 8 Sudeste 0 -- -- 75
2018-06-19 03:00:00 15.8 6 Nordeste 9 Nordeste 0 -- -- 73
2018-06-19 02:00:00 16.1 2 Oeste 11 Nordeste 0 -- -- 79
2018-06-19 01:00:00 16.7 0 Calma 6 Este 0 -- -- 79
2018-06-19 00:00:00 18.8 6 Nordeste 12 Nordeste 0 -- -- 69
2018-06-18 23:00:00 19.9 4 Nordeste 10 Sudoeste 0 -- -- 67
2018-06-18 22:00:00 22.5 9 Sur 15 Sur 0 -- -- 57
2018-06-18 21:00:00 25.2 7 Sudoeste 19 Sudoeste 0 -- -- 49
2018-06-18 20:00:00 27.3 10 Sudoeste 18 Sudoeste 0 -- -- 42
2018-06-18 19:00:00 28.2 8 Sudoeste 18 Sudoeste 0 -- -- 40
2018-06-18 18:00:00 28.2 9 Sudoeste 22 Oeste 0 -- -- 37
2018-06-18 17:00:00 27.6 13 Sudoeste 30 Sudoeste 0 -- -- 40
2018-06-18 16:00:00 27.1 12 Oeste 23 Oeste 0 -- -- 39
2018-06-18 15:00:00 26.4 14 Oeste 25 Oeste 0 -- -- 43
2018-06-18 14:00:00 25.3 15 Oeste 26 Oeste 0 -- -- 46
2018-06-18 13:00:00 24.3 15 Oeste 22 Oeste 0 -- -- 49
2018-06-18 12:00:00 23.1 12 Oeste 18 Oeste 0 -- -- 54
2018-06-18 11:00:00 21.3 8 Oeste 15 Oeste 0 -- -- 58
2018-06-18 10:00:00 19.3 3 Noroeste 8 Oeste 0 -- -- 60
2018-06-18 09:00:00 16.1 2 Norte 5 Norte 0 -- -- 72
2018-06-18 08:00:00 12.7 0 Calma 9 Nordeste 0 -- -- 82
2018-06-18 07:00:00 11.7 3 Nordeste 9 Este 0 -- -- 83
2018-06-18 06:00:00 11.5 3 Sudeste 8 Nordeste 0 -- -- 86
2018-06-18 05:00:00 11.7 3 Este 8 Sur 0 -- -- 87
2018-06-18 04:00:00 12.3 3 Sudeste 7 Sur 0 -- -- 85
2018-06-18 03:00:00 13.7 4 Sudeste 10 Este 0 -- -- 82
2018-06-18 02:00:00 14.5 4 Sudeste 9 Sudeste 0 -- -- 81
2018-06-18 01:00:00 15.4 0 Calma 8 Nordeste 0 -- -- 80
2018-06-18 00:00:00 16.4 7 Este 10 Nordeste 0 -- -- 75
2018-06-17 23:00:00 17.3 3 Sudeste 6 Sudeste 0 -- -- 74
2018-06-17 22:00:00 20.6 2 Este 13 Sur 0 -- -- 62
2018-06-17 21:00:00 24.1 8 Sur 18 Sur 0 -- -- 48
2018-06-17 20:00:00 26.3 10 Sur 16 Sudoeste 0 -- -- 46
2018-06-17 19:00:00 26.6 10 Sur 20 Sudoeste 0 -- -- 40
2018-06-17 18:00:00 26.1 9 Sudoeste 23 Oeste 0 -- -- 44
2018-06-17 17:00:00 25.7 13 Oeste 25 Oeste 0 -- -- 45
2018-06-17 16:00:00 25 11 Sudoeste 23 Oeste 0 -- -- 51
2018-06-17 15:00:00 23.8 11 Sudoeste 31 Sudoeste 0 -- -- 52
2018-06-17 14:00:00 22.4 19 Sudoeste 28 Oeste 0 -- -- 61
2018-06-17 13:00:00 22.2 15 Sudoeste 27 Oeste 0 -- -- 65
2018-06-17 12:00:00 22 15 Oeste 26 Oeste 0 -- -- 67
2018-06-17 11:00:00 20.9 9 Oeste 17 Oeste 0 -- -- 73
2018-06-17 10:00:00 19.3 6 Oeste 11 Oeste 0 -- -- 78
2018-06-17 09:00:00 17.9 3 Noroeste 6 Noroeste 0 -- -- 78
2018-06-17 08:00:00 15.4 3 Nordeste 10 Nordeste 0 -- -- 84
2018-06-17 07:00:00 13.4 5 Este 8 Este 0 -- -- 91
2018-06-17 06:00:00 13.1 3 Nordeste 5 Este 0 -- -- 91
2018-06-17 05:00:00 13.8 3 Sudeste 6 Este 0 -- -- 91
2018-06-17 04:00:00 14.4 3 Este 7 Sur 0 -- -- 89
2018-06-17 03:00:00 15.1 6 Sur 9 Sur 0 -- -- 88
2018-06-17 02:00:00 16.9 3 Sur 7 Sudeste 0 -- -- 84
2018-06-17 01:00:00 17.2 3 Nordeste 9 Este 0 -- -- 81
2018-06-17 00:00:00 18 7 Nordeste 12 Nordeste 0 -- -- 78